sensor_id;sensor_type;location;lat;lon;timestamp;pressure;altitude;pressure_sealevel;temperature;humidity
63901;BME280;50538;53.482;10.294;2023-04-20T00:00:17;101861.53;;;7.57;70.20
63901;BME280;50538;53.482;10.294;2023-04-20T00:10:27;101871.25;;;7.57;70.44
63901;BME280;50538;53.482;10.294;2023-04-20T00:20:53;101858.41;;;7.52;69.82
63901;BME280;50538;53.482;10.294;2023-04-20T00:31:27;101847.34;;;7.47;70.81
63901;BME280;50538;53.482;10.294;2023-04-20T00:41:29;101832.09;;;7.40;72.51
63901;BME280;50538;53.482;10.294;2023-04-20T00:51:30;101815.94;;;7.20;76.54
63901;BME280;50538;53.482;10.294;2023-04-20T01:01:33;101819.91;;;7.04;78.21
63901;BME280;50538;53.482;10.294;2023-04-20T01:11:50;101809.31;;;6.92;79.26
63901;BME280;50538;53.482;10.294;2023-04-20T01:22:05;101805.56;;;6.84;81.35
63901;BME280;50538;53.482;10.294;2023-04-20T01:32:09;101806.00;;;6.78;80.84
63901;BME280;50538;53.482;10.294;2023-04-20T01:42:13;101796.66;;;6.74;80.43
63901;BME280;50538;53.482;10.294;2023-04-20T01:52:28;101771.31;;;6.71;80.70
63901;BME280;50538;53.482;10.294;2023-04-20T02:02:33;101775.75;;;6.71;81.66
63901;BME280;50538;53.482;10.294;2023-04-20T02:12:37;101740.00;;;6.66;81.01
63901;BME280;50538;53.482;10.294;2023-04-20T02:22:38;101752.69;;;6.61;81.90
63901;BME280;50538;53.482;10.294;2023-04-20T02:32:47;101730.09;;;6.57;80.71
63901;BME280;50538;53.482;10.294;2023-04-20T02:42:50;101737.94;;;6.59;81.02
63901;BME280;50538;53.482;10.294;2023-04-20T02:52:59;101739.69;;;6.58;81.33
63901;BME280;50538;53.482;10.294;2023-04-20T03:03:09;101738.84;;;6.58;80.84
63901;BME280;50538;53.482;10.294;2023-04-20T03:13:28;101736.22;;;6.58;80.91
63901;BME280;50538;53.482;10.294;2023-04-20T03:23:32;101735.28;;;6.59;80.45
63901;BME280;50538;53.482;10.294;2023-04-20T03:33:34;101741.50;;;6.58;80.46
63901;BME280;50538;53.482;10.294;2023-04-20T03:43:36;101730.09;;;6.57;81.43
63901;BME280;50538;53.482;10.294;2023-04-20T03:53:44;101708.50;;;6.52;81.91
63901;BME280;50538;53.482;10.294;2023-04-20T04:04:10;101715.22;;;6.45;83.12
63901;BME280;50538;53.482;10.294;2023-04-20T04:14:12;101729.72;;;6.40;85.13
63901;BME280;50538;53.482;10.294;2023-04-20T04:24:14;101736.28;;;6.34;85.58
63901;BME280;50538;53.482;10.294;2023-04-20T04:34:14;101739.25;;;6.29;86.38
63901;BME280;50538;53.482;10.294;2023-04-20T04:44:21;101732.53;;;6.25;86.56
63901;BME280;50538;53.482;10.294;2023-04-20T04:54:23;101735.50;;;6.21;88.14
63901;BME280;50538;53.482;10.294;2023-04-20T05:04:27;101739.19;;;6.18;88.55
63901;BME280;50538;53.482;10.294;2023-04-20T05:14:34;101753.22;;;6.19;89.40
63901;BME280;50538;53.482;10.294;2023-04-20T05:24:36;101755.25;;;6.15;89.81
63901;BME280;50538;53.482;10.294;2023-04-20T05:34:38;101741.09;;;6.16;90.75
63901;BME280;50538;53.482;10.294;2023-04-20T05:44:39;101768.31;;;6.17;89.60
63901;BME280;50538;53.482;10.294;2023-04-20T05:54:40;101767.13;;;6.21;90.25
63901;BME280;50538;53.482;10.294;2023-04-20T06:04:41;101767.44;;;6.29;91.85
63901;BME280;50538;53.482;10.294;2023-04-20T06:14:41;101756.66;;;6.32;90.56
63901;BME280;50538;53.482;10.294;2023-04-20T06:24:42;101763.16;;;6.39;91.47
63901;BME280;50538;53.482;10.294;2023-04-20T06:34:43;101759.25;;;6.56;94.04
63901;BME280;50538;53.482;10.294;2023-04-20T06:44:43;101771.66;;;6.66;93.07
63901;BME280;50538;53.482;10.294;2023-04-20T06:54:46;101775.16;;;6.67;89.45
63901;BME280;50538;53.482;10.294;2023-04-20T07:04:59;101782.00;;;6.70;92.32
63901;BME280;50538;53.482;10.294;2023-04-20T07:15:34;101790.75;;;6.70;90.99
63901;BME280;50538;53.482;10.294;2023-04-20T07:25:36;101784.63;;;6.70;89.82
63901;BME280;50538;53.482;10.294;2023-04-20T07:35:49;101787.56;;;6.89;93.37
63901;BME280;50538;53.482;10.294;2023-04-20T07:46:03;101802.00;;;6.96;90.70
63901;BME280;50538;53.482;10.294;2023-04-20T07:56:09;101816.66;;;7.00;92.74
63901;BME280;50538;53.482;10.294;2023-04-20T08:06:28;101816.16;;;7.06;93.34
63901;BME280;50538;53.482;10.294;2023-04-20T08:16:34;101835.13;;;7.11;93.83
63901;BME280;50538;53.482;10.294;2023-04-20T08:27:03;101832.25;;;7.14;92.62
63901;BME280;50538;53.482;10.294;2023-04-20T08:37:04;101825.47;;;7.34;92.80
63901;BME280;50538;53.482;10.294;2023-04-20T08:47:07;101827.91;;;7.59;93.49
63901;BME280;50538;53.482;10.294;2023-04-20T08:57:08;101820.06;;;7.80;93.43
63901;BME280;50538;53.482;10.294;2023-04-20T09:07:19;101824.25;;;7.94;91.36
63901;BME280;50538;53.482;10.294;2023-04-20T09:17:31;101833.03;;;8.06;91.12
63901;BME280;50538;53.482;10.294;2023-04-20T09:27:34;101848.78;;;8.07;88.91
63901;BME280;50538;53.482;10.294;2023-04-20T09:37:34;101832.38;;;8.24;93.32
63901;BME280;50538;53.482;10.294;2023-04-20T09:47:38;101824.09;;;9.14;95.47
63901;BME280;50538;53.482;10.294;2023-04-20T09:57:41;101848.47;;;9.89;89.99
63901;BME280;50538;53.482;10.294;2023-04-20T10:07:45;101848.13;;;9.73;86.69
63901;BME280;50538;53.482;10.294;2023-04-20T10:17:46;101852.25;;;9.66;87.75
63901;BME280;50538;53.482;10.294;2023-04-20T10:27:59;101856.34;;;9.70;87.44
63901;BME280;50538;53.482;10.294;2023-04-20T10:38:00;101855.84;;;9.86;89.00
63901;BME280;50538;53.482;10.294;2023-04-20T10:48:08;101841.81;;;10.14;85.78
63901;BME280;50538;53.482;10.294;2023-04-20T10:58:08;101838.06;;;10.26;85.83
63901;BME280;50538;53.482;10.294;2023-04-20T11:08:09;101835.59;;;10.35;84.53
63901;BME280;50538;53.482;10.294;2023-04-20T11:18:10;101834.19;;;10.30;86.07
63901;BME280;50538;53.482;10.294;2023-04-20T11:28:12;101840.03;;;10.24;86.37
63901;BME280;50538;53.482;10.294;2023-04-20T11:38:43;101836.38;;;10.16;87.08
63901;BME280;50538;53.482;10.294;2023-04-20T11:48:45;101827.47;;;10.26;85.29
63901;BME280;50538;53.482;10.294;2023-04-20T11:58:47;101839.19;;;10.24;87.89
63901;BME280;50538;53.482;10.294;2023-04-20T12:08:47;101843.19;;;10.09;87.69
63901;BME280;50538;53.482;10.294;2023-04-20T12:18:48;101843.88;;;9.91;89.74
63901;BME280;50538;53.482;10.294;2023-04-20T12:28:48;101849.13;;;9.82;89.69
63901;BME280;50538;53.482;10.294;2023-04-20T12:38:52;101849.03;;;9.93;91.01
63901;BME280;50538;53.482;10.294;2023-04-20T12:48:54;101847.19;;;10.34;90.28
63901;BME280;50538;53.482;10.294;2023-04-20T12:58:55;101818.25;;;10.69;87.70
63901;BME280;50538;53.482;10.294;2023-04-20T13:08:59;101815.50;;;10.90;84.87
63901;BME280;50538;53.482;10.294;2023-04-20T13:19:03;101807.03;;;11.23;85.28
63901;BME280;50538;53.482;10.294;2023-04-20T13:29:05;101800.69;;;11.34;84.32
63901;BME280;50538;53.482;10.294;2023-04-20T13:39:11;101787.44;;;11.24;84.77
63901;BME280;50538;53.482;10.294;2023-04-20T13:49:25;101777.09;;;11.21;84.18
63901;BME280;50538;53.482;10.294;2023-04-20T13:59:40;101756.91;;;11.28;86.07
63901;BME280;50538;53.482;10.294;2023-04-20T14:19:51;101739.72;;;11.60;86.13
63901;BME280;50538;53.482;10.294;2023-04-20T14:30:22;101736.47;;;11.84;86.54
63901;BME280;50538;53.482;10.294;2023-04-20T14:40:47;101727.91;;;12.08;85.18
63901;BME280;50538;53.482;10.294;2023-04-20T14:51:38;101721.50;;;12.36;84.14
63901;BME280;50538;53.482;10.294;2023-04-20T15:02:10;101701.53;;;12.50;83.03
63901;BME280;50538;53.482;10.294;2023-04-20T15:12:13;101687.19;;;12.69;82.38
63901;BME280;50538;53.482;10.294;2023-04-20T15:22:24;101670.84;;;13.32;80.66
63901;BME280;50538;53.482;10.294;2023-04-20T15:33:09;101653.69;;;14.17;78.98
63901;BME280;50538;53.482;10.294;2023-04-20T15:43:25;101628.81;;;14.96;75.16
63901;BME280;50538;53.482;10.294;2023-04-20T15:54:06;101619.22;;;15.18;75.30
63901;BME280;50538;53.482;10.294;2023-04-20T16:04:21;101612.22;;;15.09;75.52
63901;BME280;50538;53.482;10.294;2023-04-20T16:24:40;101623.41;;;14.57;75.83
63901;BME280;50538;53.482;10.294;2023-04-20T16:35:05;101621.63;;;14.25;75.07
63901;BME280;50538;53.482;10.294;2023-04-20T16:56:36;101623.25;;;13.77;74.83
63901;BME280;50538;53.482;10.294;2023-04-20T17:07:05;101619.25;;;13.73;76.35
63901;BME280;50538;53.482;10.294;2023-04-20T17:17:09;101599.06;;;16.07;68.11
63901;BME280;50538;53.482;10.294;2023-04-20T17:27:10;101578.03;;;17.21;64.20
63901;BME280;50538;53.482;10.294;2023-04-20T17:37:10;101571.66;;;18.08;60.39
63901;BME280;50538;53.482;10.294;2023-04-20T17:47:11;101563.66;;;18.14;60.03
63901;BME280;50538;53.482;10.294;2023-04-20T17:57:13;101576.25;;;17.29;60.74
63901;BME280;50538;53.482;10.294;2023-04-20T18:07:17;101590.75;;;15.56;64.81
63901;BME280;50538;53.482;10.294;2023-04-20T18:17:18;101608.94;;;14.27;69.17
63901;BME280;50538;53.482;10.294;2023-04-20T18:27:18;101617.19;;;13.35;72.01
63901;BME280;50538;53.482;10.294;2023-04-20T18:37:19;101620.88;;;12.66;74.64
63901;BME280;50538;53.482;10.294;2023-04-20T18:47:20;101616.34;;;12.14;76.36
63901;BME280;50538;53.482;10.294;2023-04-20T18:57:23;101611.94;;;11.70;78.05
63901;BME280;50538;53.482;10.294;2023-04-20T19:07:25;101623.28;;;11.26;79.98
63901;BME280;50538;53.482;10.294;2023-04-20T19:17:25;101621.94;;;10.95;80.62
63901;BME280;50538;53.482;10.294;2023-04-20T19:27:26;101634.00;;;10.70;82.15
63901;BME280;50538;53.482;10.294;2023-04-20T19:37:27;101639.53;;;10.49;81.69
63901;BME280;50538;53.482;10.294;2023-04-20T19:47:27;101638.56;;;10.31;83.20
63901;BME280;50538;53.482;10.294;2023-04-20T19:57:28;101643.63;;;10.15;83.03
63901;BME280;50538;53.482;10.294;2023-04-20T20:07:28;101650.03;;;10.03;83.82
63901;BME280;50538;53.482;10.294;2023-04-20T20:17:29;101651.19;;;9.90;83.44
63901;BME280;50538;53.482;10.294;2023-04-20T20:27:29;101658.69;;;9.76;83.88
63901;BME280;50538;53.482;10.294;2023-04-20T20:37:30;101666.78;;;9.64;84.30
63901;BME280;50538;53.482;10.294;2023-04-20T20:47:33;101660.44;;;9.46;84.71
63901;BME280;50538;53.482;10.294;2023-04-20T20:57:34;101658.91;;;9.34;84.33
63901;BME280;50538;53.482;10.294;2023-04-20T21:07:35;101660.56;;;9.25;84.32
63901;BME280;50538;53.482;10.294;2023-04-20T21:17:35;101664.44;;;9.21;84.83
63901;BME280;50538;53.482;10.294;2023-04-20T21:27:35;101679.75;;;9.18;84.19
63901;BME280;50538;53.482;10.294;2023-04-20T21:37:36;101667.31;;;9.09;84.63
63901;BME280;50538;53.482;10.294;2023-04-20T21:47:36;101672.28;;;9.02;84.64
63901;BME280;50538;53.482;10.294;2023-04-20T21:57:37;101663.03;;;8.96;84.77
63901;BME280;50538;53.482;10.294;2023-04-20T22:07:38;101670.69;;;8.90;84.13
63901;BME280;50538;53.482;10.294;2023-04-20T22:17:39;101664.50;;;8.80;84.71
63901;BME280;50538;53.482;10.294;2023-04-20T22:27:39;101666.28;;;8.70;85.07
63901;BME280;50538;53.482;10.294;2023-04-20T22:37:40;101666.34;;;8.58;84.59
63901;BME280;50538;53.482;10.294;2023-04-20T22:47:40;101665.69;;;8.45;85.63
63901;BME280;50538;53.482;10.294;2023-04-20T22:57:40;101660.34;;;8.36;85.54
63901;BME280;50538;53.482;10.294;2023-04-20T23:07:41;101666.38;;;8.26;85.03
63901;BME280;50538;53.482;10.294;2023-04-20T23:17:44;101676.81;;;8.18;85.28
63901;BME280;50538;53.482;10.294;2023-04-20T23:27:44;101662.66;;;8.08;85.86
63901;BME280;50538;53.482;10.294;2023-04-20T23:37:45;101664.25;;;7.99;85.83
63901;BME280;50538;53.482;10.294;2023-04-20T23:47:45;101655.97;;;7.93;86.01
63901;BME280;50538;53.482;10.294;2023-04-20T23:57:45;101648.53;;;7.87;85.54
